createdAt,value
2022-08-14T00:02:16.720Z,8.80
2022-08-14T00:04:46.236Z,8.45
2022-08-14T00:07:15.042Z,8.00
2022-08-14T00:10:01.502Z,8.02
2022-08-14T00:12:39.491Z,8.27
2022-08-14T00:15:11.940Z,7.88
2022-08-14T00:17:47.526Z,7.85
2022-08-14T00:20:30.370Z,6.93
2022-08-14T00:23:08.528Z,7.32
2022-08-14T00:25:43.061Z,7.10
2022-08-14T00:28:15.075Z,6.90
2022-08-14T00:30:44.176Z,6.60
2022-08-14T00:33:15.186Z,7.15
2022-08-14T00:36:35.275Z,6.97
2022-08-14T00:38:34.765Z,6.53
2022-08-14T00:41:05.092Z,6.13
2022-08-14T00:43:33.577Z,6.18
2022-08-14T00:46:05.277Z,6.10
2022-08-14T00:48:38.437Z,5.97
2022-08-14T00:51:10.905Z,5.80
2022-08-14T00:53:42.913Z,5.72
2022-08-14T00:56:15.491Z,5.63
2022-08-14T00:58:45.472Z,5.22
2022-08-14T01:01:19.144Z,5.35
2022-08-14T01:03:52.662Z,5.32
2022-08-14T01:06:23.546Z,5.35
2022-08-14T01:08:59.155Z,5.60
2022-08-14T01:11:35.316Z,5.10
2022-08-14T01:14:18.228Z,5.65
2022-08-14T01:16:53.145Z,5.72
2022-08-14T01:19:41.616Z,5.57
2022-08-14T01:22:12.698Z,5.57
2022-08-14T01:24:43.587Z,5.32
2022-08-14T01:27:18.136Z,5.32
2022-08-14T01:30:00.638Z,5.60
2022-08-14T01:32:37.823Z,5.32
2022-08-14T01:35:17.635Z,5.25
2022-08-14T01:37:56.147Z,5.28
2022-08-14T01:40:25.572Z,5.55
2022-08-14T01:43:02.913Z,5.47
2022-08-14T01:45:31.533Z,5.50
2022-08-14T01:48:13.901Z,5.38
2022-08-14T01:50:44.073Z,6.50
2022-08-14T01:53:14.672Z,5.90
2022-08-14T01:55:42.839Z,5.47
2022-08-14T01:58:19.583Z,5.75
2022-08-14T02:00:54.382Z,5.05
2022-08-14T02:03:24.556Z,5.43
2022-08-14T02:06:03.581Z,4.90
2022-08-14T02:08:53.024Z,5.03
2022-08-14T02:11:24.628Z,5.35
2022-08-14T02:13:59.567Z,4.75
2022-08-14T02:16:39.125Z,5.03
2022-08-14T02:19:09.827Z,5.20
2022-08-14T02:21:43.576Z,5.25
2022-08-14T02:24:40.371Z,5.45
2022-08-14T02:28:24.384Z,5.38
2022-08-14T02:30:01.332Z,5.13
2022-08-14T02:32:37.009Z,5.20
2022-08-14T02:35:10.378Z,5.53
2022-08-14T02:37:48.469Z,5.32
2022-08-14T02:40:19.299Z,4.78
2022-08-14T02:42:54.060Z,5.20
2022-08-14T02:45:24.130Z,5.72
2022-08-14T02:47:53.761Z,5.10
2022-08-14T02:50:27.185Z,5.47
2022-08-14T02:52:57.762Z,5.30
2022-08-14T02:55:33.286Z,5.65
2022-08-14T02:58:03.343Z,5.00
2022-08-14T03:00:35.636Z,5.63
2022-08-14T03:03:08.778Z,5.70
2022-08-14T03:05:41.641Z,6.03
2022-08-14T03:08:15.375Z,5.30
2022-08-14T03:10:49.041Z,5.40
2022-08-14T03:13:20.874Z,5.57
2022-08-14T03:15:56.110Z,5.47
2022-08-14T03:18:31.197Z,5.80
2022-08-14T03:21:01.559Z,5.93
2022-08-14T03:23:34.124Z,5.90
2022-08-14T03:26:08.661Z,6.03
2022-08-14T03:28:42.336Z,5.78
2022-08-14T03:31:13.415Z,5.88
2022-08-14T03:33:43.078Z,6.18
2022-08-14T03:37:51.401Z,6.38
2022-08-14T03:39:13.173Z,5.50
2022-08-14T03:41:50.994Z,5.93
2022-08-14T03:45:27.701Z,6.18
2022-08-14T03:47:08.221Z,6.05
2022-08-14T03:49:42.139Z,6.00
2022-08-14T03:52:28.094Z,6.13
2022-08-14T03:55:00.365Z,6.38
2022-08-14T03:57:32.408Z,5.88
2022-08-14T04:00:04.099Z,6.30
2022-08-14T04:02:37.735Z,6.57
2022-08-14T04:05:16.468Z,6.22
2022-08-14T04:07:49.687Z,6.05
2022-08-14T04:10:33.347Z,5.90
2022-08-14T04:13:04.506Z,5.95
2022-08-14T04:15:56.643Z,5.80
2022-08-14T04:18:21.031Z,5.65
2022-08-14T04:20:51.619Z,5.75
2022-08-14T04:23:32.585Z,6.13
2022-08-14T04:26:03.164Z,5.47
2022-08-14T04:29:07.301Z,5.78
2022-08-14T04:31:25.033Z,5.95
2022-08-14T04:34:20.701Z,6.10
2022-08-14T04:37:10.642Z,5.80
2022-08-14T04:40:08.801Z,6.05
2022-08-14T04:42:55.046Z,6.00
2022-08-14T04:45:29.657Z,6.90
2022-08-14T04:48:13.770Z,5.70
2022-08-14T04:51:03.557Z,5.68
2022-08-14T04:53:35.578Z,5.78
2022-08-14T04:56:06.021Z,6.47
2022-08-14T04:58:57.900Z,6.40
2022-08-14T05:01:39.693Z,6.60
2022-08-14T05:04:08.754Z,6.45
2022-08-14T05:06:44.062Z,6.13
2022-08-14T05:09:14.165Z,6.07
2022-08-14T05:11:44.347Z,6.75
2022-08-14T05:14:16.691Z,6.40
2022-08-14T05:17:02.904Z,6.05
2022-08-14T05:19:32.090Z,6.15
2022-08-14T05:22:16.720Z,6.10
2022-08-14T05:24:49.678Z,6.43
2022-08-14T05:27:23.279Z,6.53
2022-08-14T05:29:53.522Z,6.50
2022-08-14T05:32:23.281Z,6.93
2022-08-14T05:34:58.499Z,7.35
2022-08-14T05:37:29.893Z,7.10
2022-08-14T05:39:59.321Z,7.10
2022-08-14T05:42:31.828Z,7.40
2022-08-14T05:45:02.295Z,7.70
2022-08-14T05:47:39.607Z,7.97
2022-08-14T05:50:17.556Z,7.75
2022-08-14T05:52:48.612Z,7.97
2022-08-14T05:55:22.085Z,8.15
2022-08-14T05:57:53.711Z,7.78
2022-08-14T06:00:24.953Z,7.70
2022-08-14T06:03:00.191Z,7.68
2022-08-14T06:05:29.609Z,7.78
2022-08-14T06:07:58.646Z,7.82
2022-08-14T06:10:27.977Z,7.80
2022-08-14T06:12:57.907Z,8.10
2022-08-14T06:15:29.929Z,8.10
2022-08-14T06:18:01.875Z,8.52
2022-08-14T06:20:31.399Z,8.18
2022-08-14T06:23:02.553Z,7.97
2022-08-14T06:25:32.178Z,8.77
2022-08-14T06:28:03.827Z,8.45
2022-08-14T06:30:45.966Z,8.30
2022-08-14T06:33:18.240Z,9.18
2022-08-14T06:35:47.450Z,9.05
2022-08-14T06:38:19.832Z,8.65
2022-08-14T06:40:50.916Z,9.25
2022-08-14T06:43:27.075Z,9.50
2022-08-14T06:45:57.217Z,8.30
2022-08-14T06:48:27.194Z,9.70
2022-08-14T06:50:57.963Z,9.43
2022-08-14T06:53:28.246Z,8.85
2022-08-14T06:56:02.088Z,9.65
2022-08-14T06:58:32.279Z,8.90
2022-08-14T07:01:26.922Z,9.15
2022-08-14T07:04:23.789Z,9.82
2022-08-14T07:06:55.488Z,9.63
2022-08-14T07:09:40.460Z,9.85
2022-08-14T07:12:53.058Z,9.55
2022-08-14T07:15:06.206Z,9.48
2022-08-14T07:17:36.334Z,9.52
2022-08-14T07:20:07.634Z,9.45
2022-08-14T07:22:55.969Z,10.82
2022-08-14T07:25:30.414Z,10.50
2022-08-14T07:28:01.357Z,10.68
2022-08-14T07:30:34.619Z,10.73
2022-08-14T07:33:03.598Z,10.82
2022-08-14T07:35:42.876Z,11.40
2022-08-14T07:38:19.908Z,11.35
2022-08-14T07:40:48.486Z,11.32
2022-08-14T07:43:23.763Z,10.13
2022-08-14T07:45:54.019Z,11.35
2022-08-14T07:48:25.464Z,11.70
2022-08-14T07:51:02.072Z,11.15
2022-08-14T07:53:34.205Z,11.25
2022-08-14T07:56:21.534Z,10.77
2022-08-14T07:58:58.419Z,10.73
2022-08-14T08:01:29.843Z,11.38
2022-08-14T08:04:01.168Z,11.18
2022-08-14T08:06:31.419Z,11.05
2022-08-14T08:09:03.221Z,10.73
2022-08-14T08:11:37.563Z,11.57
2022-08-14T08:14:10.533Z,10.93
2022-08-14T08:16:46.731Z,11.55
2022-08-14T08:19:18.896Z,10.70
2022-08-14T08:21:48.520Z,11.57
2022-08-14T08:24:19.864Z,11.18
2022-08-14T08:26:50.666Z,12.23
2022-08-14T08:29:28.465Z,11.80
2022-08-14T08:32:01.985Z,11.82
2022-08-14T08:34:46.059Z,11.18
2022-08-14T08:37:16.009Z,12.13
2022-08-14T08:40:02.266Z,12.05
2022-08-14T08:42:38.876Z,11.68
2022-08-14T08:45:11.998Z,12.13
2022-08-14T08:47:41.588Z,11.50
2022-08-14T08:50:22.987Z,11.45
2022-08-14T08:52:55.553Z,11.38
2022-08-14T08:55:28.623Z,11.23
2022-08-14T08:57:58.951Z,11.00
2022-08-14T09:00:34.433Z,11.68
2022-08-14T09:03:12.255Z,11.45
2022-08-14T09:05:54.068Z,12.45
2022-08-14T09:08:31.391Z,11.98
2022-08-14T09:11:02.967Z,11.30
2022-08-14T09:13:49.077Z,11.63
2022-08-14T09:16:21.817Z,11.55
2022-08-14T09:18:53.451Z,10.05
2022-08-14T09:21:24.420Z,11.50
2022-08-14T09:24:26.138Z,10.95
2022-08-14T09:26:49.190Z,11.63
2022-08-14T09:29:22.713Z,10.95
2022-08-14T09:31:57.493Z,10.70
2022-08-14T09:34:57.992Z,10.82
2022-08-14T09:37:38.585Z,10.43
2022-08-14T09:40:20.933Z,11.20
2022-08-14T09:42:58.364Z,11.02
2022-08-14T09:45:39.736Z,10.80
2022-08-14T09:48:16.715Z,10.85
2022-08-14T09:50:50.857Z,11.75
2022-08-14T09:54:19.461Z,11.00
2022-08-14T09:56:31.170Z,10.80
2022-08-14T09:59:15.320Z,10.90
2022-08-14T10:01:46.255Z,11.25
2022-08-14T10:04:35.832Z,12.27
2022-08-14T10:07:06.249Z,11.15
2022-08-14T10:09:57.778Z,11.25
2022-08-14T10:12:52.927Z,11.35
2022-08-14T10:15:25.370Z,10.45
2022-08-14T10:18:09.646Z,11.05
2022-08-14T10:20:55.304Z,11.60
2022-08-14T10:23:26.015Z,11.32
2022-08-14T10:25:58.989Z,11.50
2022-08-14T10:29:17.519Z,11.35
2022-08-14T10:31:45.036Z,11.23
2022-08-14T10:34:19.924Z,11.50
2022-08-14T10:37:05.676Z,11.43
2022-08-14T10:40:02.035Z,11.52
2022-08-14T10:42:37.388Z,11.82
2022-08-14T10:45:21.534Z,11.45
2022-08-14T10:48:09.286Z,11.43
2022-08-14T10:50:45.886Z,11.80
2022-08-14T10:53:15.429Z,11.13
2022-08-14T10:55:45.784Z,12.10
2022-08-14T10:58:14.995Z,11.48
2022-08-14T11:00:57.498Z,12.70
2022-08-14T11:03:55.281Z,12.45
2022-08-14T11:06:20.136Z,12.50
2022-08-14T11:08:51.960Z,12.65
2022-08-14T11:11:23.066Z,11.88
2022-08-14T11:13:51.227Z,12.25
2022-08-14T11:16:21.302Z,11.60
2022-08-14T11:18:51.176Z,12.07
2022-08-14T11:21:22.968Z,11.30
2022-08-14T11:23:53.743Z,12.30
2022-08-14T11:26:24.540Z,11.73
2022-08-14T11:28:53.667Z,11.63
2022-08-14T11:31:24.675Z,12.82
2022-08-14T11:33:57.797Z,10.98
2022-08-14T11:36:57.190Z,11.55
2022-08-14T11:39:33.979Z,11.93
2022-08-14T11:42:55.472Z,11.60
2022-08-14T11:44:56.779Z,12.13
2022-08-14T11:47:35.282Z,12.32
2022-08-14T11:50:34.160Z,12.80
2022-08-14T11:53:07.114Z,11.15
2022-08-14T11:55:37.981Z,11.85
2022-08-14T11:58:08.787Z,11.38
2022-08-14T12:00:47.887Z,11.45
2022-08-14T12:03:27.114Z,11.55
2022-08-14T12:06:21.587Z,12.68
2022-08-14T12:08:59.925Z,12.02
2022-08-14T12:11:44.225Z,11.77
2022-08-14T12:14:30.950Z,11.10
2022-08-14T12:17:12.277Z,12.75
2022-08-14T12:19:53.940Z,12.20
2022-08-14T12:22:35.353Z,12.98
2022-08-14T12:25:10.671Z,12.00
2022-08-14T12:27:46.909Z,12.00
2022-08-14T12:30:35.954Z,11.60
2022-08-14T12:33:24.027Z,12.18
2022-08-14T12:35:57.754Z,12.13
2022-08-14T12:38:35.979Z,11.98
2022-08-14T12:41:10.361Z,12.07
2022-08-14T12:43:48.079Z,11.75
2022-08-14T12:46:27.243Z,11.48
2022-08-14T12:48:58.472Z,11.95
2022-08-14T12:51:30.827Z,11.52
2022-08-14T12:54:00.744Z,11.20
2022-08-14T12:56:33.751Z,11.75
2022-08-14T12:59:03.343Z,12.30
2022-08-14T13:02:00.126Z,11.60
2022-08-14T13:04:22.840Z,12.77
2022-08-14T13:06:53.892Z,12.05
2022-08-14T13:09:28.012Z,11.32
2022-08-14T13:12:31.934Z,11.57
2022-08-14T13:14:57.821Z,12.27
2022-08-14T13:17:27.006Z,12.13
2022-08-14T13:19:59.016Z,12.05
2022-08-14T13:22:42.639Z,11.75
2022-08-14T13:25:15.831Z,12.45
2022-08-14T13:27:46.820Z,12.10
2022-08-14T13:30:23.667Z,11.70
2022-08-14T13:32:53.928Z,12.23
2022-08-14T13:35:23.324Z,11.70
2022-08-14T13:37:53.528Z,11.80
2022-08-14T13:40:26.362Z,12.20
2022-08-14T13:42:57.304Z,11.82
2022-08-14T13:45:33.840Z,10.98
2022-08-14T13:48:19.139Z,11.63
2022-08-14T13:51:01.963Z,11.15
2022-08-14T13:53:38.221Z,11.00
2022-08-14T13:56:14.784Z,10.50
2022-08-14T13:59:00.049Z,11.15
2022-08-14T14:01:29.679Z,11.18
2022-08-14T14:03:59.801Z,10.40
2022-08-14T14:06:32.008Z,10.05
2022-08-14T14:09:03.416Z,9.63
2022-08-14T14:11:31.530Z,10.15
2022-08-14T14:14:00.624Z,10.30
2022-08-14T14:16:30.449Z,9.88
2022-08-14T14:19:06.767Z,10.32
2022-08-14T14:21:40.745Z,10.00
2022-08-14T14:24:15.366Z,9.50
2022-08-14T14:26:46.813Z,9.70
2022-08-14T14:29:16.784Z,9.55
2022-08-14T14:31:48.427Z,9.02
2022-08-14T14:34:29.386Z,9.73
2022-08-14T14:37:02.822Z,9.70
2022-08-14T14:39:35.266Z,10.27
2022-08-14T14:42:09.268Z,10.48
2022-08-14T14:44:42.968Z,10.45
2022-08-14T14:47:11.837Z,10.27
2022-08-14T14:49:51.078Z,9.98
2022-08-14T14:52:27.144Z,9.75
2022-08-14T14:54:58.841Z,7.82
2022-08-14T14:57:34.748Z,7.07
2022-08-14T15:00:06.907Z,6.55
2022-08-14T15:02:38.482Z,7.22
2022-08-14T15:05:08.105Z,7.43
2022-08-14T15:07:36.750Z,7.78
2022-08-14T15:10:27.054Z,8.20
2022-08-14T15:13:00.422Z,9.18
2022-08-14T15:15:32.775Z,8.00
2022-08-14T15:18:01.621Z,8.73
2022-08-14T15:20:31.456Z,7.32
2022-08-14T15:23:08.243Z,7.72
2022-08-14T15:25:43.742Z,8.75
2022-08-14T15:28:21.746Z,8.27
2022-08-14T15:30:58.970Z,8.88
2022-08-14T15:34:13.509Z,8.40
2022-08-14T15:36:35.241Z,8.38
2022-08-14T15:39:03.419Z,8.48
2022-08-14T15:41:41.498Z,8.27
2022-08-14T15:44:24.606Z,8.38
2022-08-14T15:46:55.175Z,8.18
2022-08-14T15:49:24.334Z,8.27
2022-08-14T15:51:58.819Z,8.00
2022-08-14T15:54:31.148Z,8.77
2022-08-14T15:57:02.908Z,8.52
2022-08-14T15:59:53.853Z,7.90
2022-08-14T16:02:24.549Z,8.73
2022-08-14T16:04:55.953Z,9.15
2022-08-14T16:07:26.937Z,9.40
2022-08-14T16:10:18.346Z,8.73
2022-08-14T16:12:47.737Z,9.77
2022-08-14T16:15:17.925Z,9.48
2022-08-14T16:17:47.299Z,9.82
2022-08-14T16:20:42.545Z,9.40
2022-08-14T16:23:11.557Z,10.70
2022-08-14T16:25:41.586Z,9.63
2022-08-14T16:28:27.021Z,10.35
2022-08-14T16:30:56.045Z,10.05
2022-08-14T16:33:56.796Z,10.55
2022-08-14T16:36:30.122Z,11.68
2022-08-14T16:39:00.624Z,12.70
2022-08-14T16:41:29.948Z,12.90
2022-08-14T16:44:02.494Z,12.07
2022-08-14T16:46:35.294Z,15.30
2022-08-14T16:49:05.590Z,15.00
2022-08-14T16:51:36.525Z,15.50
2022-08-14T16:54:20.866Z,15.95
2022-08-14T16:57:13.916Z,14.80
2022-08-14T16:59:52.709Z,15.18
2022-08-14T17:02:35.446Z,14.60
2022-08-14T17:05:21.030Z,13.40
2022-08-14T17:08:32.613Z,14.75
2022-08-14T17:11:09.897Z,13.50
2022-08-14T17:13:59.854Z,12.63
2022-08-14T17:16:37.066Z,13.32
2022-08-14T17:19:13.918Z,12.50
2022-08-14T17:21:47.019Z,14.25
2022-08-14T17:24:56.205Z,12.77
2022-08-14T17:27:07.941Z,13.20
2022-08-14T17:29:44.493Z,14.27
2022-08-14T17:32:30.005Z,12.95
2022-08-14T17:35:16.438Z,13.70
2022-08-14T17:37:55.842Z,14.93
2022-08-14T17:40:31.220Z,15.15
2022-08-14T17:43:02.135Z,13.07
2022-08-14T17:45:46.993Z,13.27
2022-08-14T17:49:15.130Z,13.00
2022-08-14T17:51:23.618Z,13.65
2022-08-14T17:54:02.535Z,13.27
2022-08-14T17:56:33.158Z,12.95
2022-08-14T17:59:06.874Z,13.35
2022-08-14T18:01:40.798Z,13.38
2022-08-14T18:04:28.781Z,12.88
2022-08-14T18:07:09.935Z,14.25
2022-08-14T18:09:56.495Z,13.55
2022-08-14T18:12:31.880Z,13.43
2022-08-14T18:15:05.515Z,13.13
2022-08-14T18:17:50.765Z,13.00
2022-08-14T18:21:41.649Z,14.77
2022-08-14T18:23:14.264Z,14.02
2022-08-14T18:25:48.488Z,14.20
2022-08-14T18:28:47.888Z,13.98
2022-08-14T18:31:43.438Z,15.68
2022-08-14T18:34:32.177Z,13.93
2022-08-14T18:37:17.642Z,15.65
2022-08-14T18:40:01.459Z,15.13
2022-08-14T18:42:44.691Z,16.65
2022-08-14T18:45:28.537Z,16.52
2022-08-14T18:48:33.393Z,16.52
2022-08-14T18:51:15.026Z,15.30
2022-08-14T18:53:59.519Z,15.32
2022-08-14T18:56:58.953Z,16.38
2022-08-14T18:59:35.634Z,15.63
2022-08-14T19:02:42.543Z,15.35
2022-08-14T19:05:11.635Z,14.98
2022-08-14T19:07:41.078Z,12.63
2022-08-14T19:10:16.613Z,13.40
2022-08-14T19:13:11.934Z,12.75
2022-08-14T19:15:43.933Z,14.82
2022-08-14T19:18:26.246Z,11.18
2022-08-14T19:20:58.341Z,9.73
2022-08-14T19:23:44.405Z,10.57
2022-08-14T19:26:36.596Z,8.70
2022-08-14T19:29:36.250Z,8.15
2022-08-14T19:32:27.872Z,7.57
2022-08-14T19:35:00.021Z,6.90
2022-08-14T19:37:47.372Z,7.50
2022-08-14T19:40:31.686Z,7.80
2022-08-14T19:43:06.605Z,7.45
2022-08-14T19:45:35.579Z,7.82
2022-08-14T19:48:11.442Z,8.82
2022-08-14T19:50:40.898Z,8.27
2022-08-14T19:53:17.327Z,7.78
2022-08-14T19:55:58.631Z,8.40
2022-08-14T19:58:54.859Z,7.32
2022-08-14T20:01:36.424Z,7.78
2022-08-14T20:04:08.479Z,8.13
2022-08-14T20:06:57.002Z,7.38
2022-08-14T20:11:04.790Z,8.18
2022-08-14T20:12:34.533Z,7.43
2022-08-14T20:15:18.086Z,8.07
2022-08-14T20:17:52.876Z,8.20
2022-08-14T20:20:30.858Z,8.23
2022-08-14T20:23:03.098Z,8.73
2022-08-14T20:25:45.231Z,7.68
2022-08-14T20:28:30.684Z,8.57
2022-08-14T20:31:15.897Z,8.68
2022-08-14T20:34:06.126Z,8.98
2022-08-14T20:36:39.058Z,7.95
2022-08-14T20:39:15.376Z,8.55
2022-08-14T20:41:48.950Z,13.25
2022-08-14T20:44:40.401Z,9.18
2022-08-14T20:47:16.346Z,8.60
2022-08-14T20:49:45.103Z,9.80
2022-08-14T20:52:20.013Z,9.13
2022-08-14T20:54:51.532Z,8.45
2022-08-14T20:57:20.776Z,8.80
2022-08-14T20:59:53.658Z,9.20
2022-08-14T21:02:46.419Z,10.18
2022-08-14T21:05:22.422Z,9.73
2022-08-14T21:07:52.372Z,10.15
2022-08-14T21:10:35.653Z,12.32
2022-08-14T21:13:26.044Z,11.85
2022-08-14T21:15:57.936Z,12.93
2022-08-14T21:18:29.604Z,12.63
2022-08-14T21:20:58.983Z,13.52
2022-08-14T21:23:32.918Z,11.98
2022-08-14T21:26:01.650Z,12.30
2022-08-14T21:28:35.150Z,11.98
2022-08-14T21:31:05.552Z,12.13
2022-08-14T21:33:37.074Z,15.48
2022-08-14T21:36:08.354Z,16.30
2022-08-14T21:38:42.471Z,13.43
2022-08-14T21:41:42.710Z,12.27
2022-08-14T21:44:17.910Z,12.52
2022-08-14T21:46:50.240Z,12.32
2022-08-14T21:49:23.467Z,12.18
2022-08-14T21:51:57.109Z,12.63
2022-08-14T21:54:31.852Z,13.48
2022-08-14T21:57:17.509Z,13.15
2022-08-14T21:59:45.621Z,12.70
2022-08-14T22:02:32.225Z,11.90
2022-08-14T22:05:03.538Z,12.95
2022-08-14T22:07:32.359Z,13.13
2022-08-14T22:10:05.043Z,13.48
2022-08-14T22:12:58.630Z,13.13
2022-08-14T22:15:23.687Z,14.10
2022-08-14T22:17:54.851Z,13.40
2022-08-14T22:20:28.605Z,12.88
2022-08-14T22:22:58.963Z,13.38
2022-08-14T22:25:33.551Z,12.57
2022-08-14T22:28:04.325Z,13.93
2022-08-14T22:30:33.042Z,14.43
2022-08-14T22:33:01.171Z,15.00
2022-08-14T22:35:30.971Z,14.93
2022-08-14T22:38:34.914Z,14.75
2022-08-14T22:41:18.147Z,15.02
2022-08-14T22:43:38.862Z,15.70
2022-08-14T22:46:14.827Z,15.98
2022-08-14T22:48:45.392Z,14.98
2022-08-14T22:51:17.642Z,15.77
2022-08-14T22:53:48.420Z,16.33
2022-08-14T22:56:20.133Z,15.43
2022-08-14T22:58:53.597Z,17.35
2022-08-14T23:01:56.293Z,16.17
2022-08-14T23:04:35.711Z,16.08
2022-08-14T23:07:21.915Z,16.95
2022-08-14T23:09:56.740Z,17.15
2022-08-14T23:12:31.610Z,17.45
2022-08-14T23:15:01.055Z,17.23
2022-08-14T23:17:39.475Z,17.98
2022-08-14T23:20:18.499Z,17.38
2022-08-14T23:22:52.339Z,17.77
2022-08-14T23:25:57.592Z,17.52
2022-08-14T23:28:33.940Z,20.23
2022-08-14T23:31:08.388Z,18.60
2022-08-14T23:33:45.716Z,16.27
2022-08-14T23:36:31.410Z,16.77
2022-08-14T23:39:10.513Z,16.70
2022-08-14T23:41:52.992Z,16.48
2022-08-14T23:44:23.751Z,16.45
2022-08-14T23:46:56.859Z,17.70
2022-08-14T23:49:56.652Z,18.58
2022-08-14T23:52:50.941Z,18.88
2022-08-14T23:55:11.343Z,19.67
2022-08-14T23:57:44.212Z,19.00
